createdAt,value
2022-10-29T00:01:00.378Z,102378.59
2022-10-29T00:03:30.739Z,102376.75
2022-10-29T00:06:16.857Z,102387.19
2022-10-29T00:11:34.306Z,102387.47
2022-10-29T00:16:48.347Z,102382.97
2022-10-29T00:27:35.518Z,102393.59
2022-10-29T00:30:05.622Z,102389.22
2022-10-29T00:32:34.362Z,102389.88
2022-10-29T00:35:02.313Z,102381.88
2022-10-29T00:37:29.689Z,102393.66
2022-10-29T00:39:56.784Z,102390.16
2022-10-29T00:42:27.647Z,102395.47
2022-10-29T00:45:02.793Z,102387.69
2022-10-29T00:47:42.354Z,102383.72
2022-10-29T00:50:16.362Z,102382.22
2022-10-29T00:52:49.760Z,102386.75
2022-10-29T00:55:20.756Z,102386.94
2022-10-29T00:57:54.655Z,102392.31
2022-10-29T01:00:22.504Z,102377.25
2022-10-29T01:02:57.136Z,102373.72
2022-10-29T01:05:26.128Z,102378.97
2022-10-29T01:07:55.712Z,102371.13
2022-10-29T01:10:36.102Z,102377.94
2022-10-29T01:13:44.458Z,102381.00
2022-10-29T01:16:33.040Z,102379.38
2022-10-29T01:19:32.316Z,102372.44
2022-10-29T01:22:16.621Z,102368.78
2022-10-29T01:25:12.820Z,102367.63
2022-10-29T01:27:59.744Z,102361.41
2022-10-29T01:30:32.386Z,102363.16
2022-10-29T01:33:30.105Z,102359.91
2022-10-29T01:36:01.813Z,102356.38
2022-10-29T01:39:13.971Z,102350.03
2022-10-29T01:41:52.889Z,102347.97
2022-10-29T01:44:44.515Z,102339.94
2022-10-29T01:47:22.136Z,102334.97
2022-10-29T01:50:02.812Z,102345.78
2022-10-29T01:52:38.052Z,102333.53
2022-10-29T01:55:06.155Z,102335.25
2022-10-29T01:57:45.149Z,102343.16
2022-10-29T02:00:23.986Z,102337.00
2022-10-29T02:03:30.293Z,102340.75
2022-10-29T02:06:13.772Z,102334.41
2022-10-29T02:09:09.632Z,102331.81
2022-10-29T02:11:55.667Z,102324.03
2022-10-29T02:14:50.554Z,102334.72
2022-10-29T02:17:20.637Z,102333.81
2022-10-29T02:19:50.303Z,102330.19
2022-10-29T02:22:24.099Z,102324.94
2022-10-29T02:24:53.667Z,102322.34
2022-10-29T02:27:22.876Z,102320.63
2022-10-29T02:29:49.579Z,102325.94
2022-10-29T02:32:22.321Z,102324.13
2022-10-29T02:34:55.008Z,102320.47
2022-10-29T02:37:24.896Z,102314.97
2022-10-29T02:39:51.637Z,102315.69
2022-10-29T02:42:18.345Z,102317.63
2022-10-29T02:44:45.152Z,102327.53
2022-10-29T02:47:11.841Z,102323.28
2022-10-29T02:49:43.082Z,102319.88
2022-10-29T02:52:22.105Z,102324.19
2022-10-29T02:54:49.093Z,102326.19
2022-10-29T02:57:18.755Z,102323.69
2022-10-29T02:59:55.632Z,102321.84
2022-10-29T03:02:26.668Z,102317.31
2022-10-29T03:04:55.263Z,102320.09
2022-10-29T03:07:21.968Z,102316.44
2022-10-29T03:09:49.628Z,102318.25
2022-10-29T03:12:16.567Z,102319.59
2022-10-29T03:14:43.245Z,102322.28
2022-10-29T03:17:10.713Z,102323.53
2022-10-29T03:19:48.845Z,102320.88
2022-10-29T03:22:15.930Z,102320.97
2022-10-29T03:24:42.796Z,102308.50
2022-10-29T03:27:20.895Z,102314.84
2022-10-29T03:29:47.991Z,102311.34
2022-10-29T03:32:17.603Z,102320.22
2022-10-29T03:34:47.884Z,102311.56
2022-10-29T03:37:25.552Z,102307.94
2022-10-29T03:39:52.848Z,102306.13
2022-10-29T03:42:22.631Z,102309.47
2022-10-29T03:45:01.131Z,102303.06
2022-10-29T03:47:35.467Z,102307.91
2022-10-29T03:50:05.434Z,102305.28
2022-10-29T03:52:32.409Z,102308.63
2022-10-29T03:55:02.134Z,102316.56
2022-10-29T03:57:28.869Z,102300.91
2022-10-29T04:00:02.781Z,102304.06
2022-10-29T04:02:30.237Z,102301.63
2022-10-29T04:04:59.734Z,102302.66
2022-10-29T04:07:27.846Z,102298.28
2022-10-29T04:09:54.574Z,102306.28
2022-10-29T04:12:21.322Z,102301.84
2022-10-29T04:14:48.550Z,102303.63
2022-10-29T04:20:10.039Z,102306.97
2022-10-29T04:31:15.571Z,102309.59
2022-10-29T04:33:42.282Z,102315.09
2022-10-29T04:36:10.674Z,102305.41
2022-10-29T04:38:46.540Z,102306.34
2022-10-29T04:41:18.159Z,102302.00
2022-10-29T04:46:24.049Z,102306.06
2022-10-29T04:48:51.349Z,102302.38
2022-10-29T04:51:23.154Z,102304.31
2022-10-29T04:54:09.429Z,102297.09
2022-10-29T04:56:38.720Z,102295.13
2022-10-29T05:01:51.185Z,102302.75
2022-10-29T05:04:26.244Z,102311.44
2022-10-29T05:06:53.468Z,102311.31
2022-10-29T05:09:20.663Z,102307.78
2022-10-29T05:11:47.397Z,102313.25
2022-10-29T05:14:13.928Z,102315.16
2022-10-29T05:20:27.999Z,102304.94
2022-10-29T05:23:06.450Z,102304.19
2022-10-29T05:25:35.380Z,102298.28
2022-10-29T05:28:08.533Z,102302.69
2022-10-29T05:30:38.357Z,102299.09
2022-10-29T05:33:14.305Z,102298.22
2022-10-29T05:35:41.475Z,102296.09
2022-10-29T05:38:12.364Z,102298.72
2022-10-29T05:40:39.726Z,102302.63
2022-10-29T05:43:21.727Z,102293.94
2022-10-29T05:46:19.864Z,102298.88
2022-10-29T05:48:46.591Z,102300.75
2022-10-29T05:51:13.346Z,102292.53
2022-10-29T05:53:39.996Z,102296.94
2022-10-29T05:56:07.342Z,102293.59
2022-10-29T05:59:02.286Z,102296.28
2022-10-29T06:01:29.055Z,102298.06
2022-10-29T06:03:55.884Z,102298.94
2022-10-29T06:06:22.637Z,102303.56
2022-10-29T06:08:49.347Z,102313.31
2022-10-29T06:11:16.182Z,102316.84
2022-10-29T06:13:42.688Z,102318.53
2022-10-29T06:16:09.404Z,102317.56
2022-10-29T06:18:37.797Z,102316.75
2022-10-29T06:21:05.343Z,102316.88
2022-10-29T06:23:32.188Z,102328.34
2022-10-29T06:26:04.130Z,102321.19
2022-10-29T06:28:34.689Z,102313.19
2022-10-29T06:31:01.762Z,102312.22
2022-10-29T06:33:28.600Z,102314.88
2022-10-29T06:36:00.754Z,102320.88
2022-10-29T06:38:27.651Z,102322.72
2022-10-29T06:40:54.395Z,102324.44
2022-10-29T06:43:23.528Z,102332.25
2022-10-29T06:45:54.688Z,102335.81
2022-10-29T06:48:22.716Z,102332.16
2022-10-29T06:50:51.560Z,102335.38
2022-10-29T06:53:49.423Z,102338.09
2022-10-29T06:56:16.151Z,102344.31
2022-10-29T06:58:45.942Z,102348.47
2022-10-29T07:01:12.734Z,102349.22
2022-10-29T07:03:39.555Z,102351.88
2022-10-29T07:06:06.463Z,102355.16
2022-10-29T07:08:33.579Z,102354.31
2022-10-29T07:11:02.900Z,102352.69
2022-10-29T07:13:46.303Z,102362.16
2022-10-29T07:16:29.939Z,102363.59
2022-10-29T07:18:58.195Z,102361.00
2022-10-29T07:21:28.038Z,102364.53
2022-10-29T07:23:56.589Z,102363.53
2022-10-29T07:27:09.568Z,102366.06
2022-10-29T07:29:39.569Z,102365.69
2022-10-29T07:32:06.273Z,102371.47
2022-10-29T07:34:32.904Z,102375.63
2022-10-29T07:39:44.379Z,102372.53
2022-10-29T07:42:17.220Z,102377.78
2022-10-29T07:44:47.221Z,102385.47
2022-10-29T07:47:13.917Z,102378.47
2022-10-29T07:49:40.542Z,102378.47
2022-10-29T07:52:19.375Z,102373.75
2022-10-29T07:54:46.134Z,102370.75
2022-10-29T07:57:25.616Z,102377.78
2022-10-29T08:00:17.095Z,102378.97
2022-10-29T08:02:43.780Z,102374.09
2022-10-29T08:05:10.519Z,102368.75
2022-10-29T08:07:39.927Z,102368.84
2022-10-29T08:10:07.268Z,102368.69
2022-10-29T08:12:34.164Z,102369.22
2022-10-29T08:15:16.692Z,102360.19
2022-10-29T08:17:48.043Z,102362.28
2022-10-29T08:20:22.212Z,102362.94
2022-10-29T08:22:49.088Z,102365.44
2022-10-29T08:25:16.204Z,102363.22
2022-10-29T08:27:43.408Z,102361.97
2022-10-29T08:30:40.990Z,102358.28
2022-10-29T08:36:14.963Z,102366.63
2022-10-29T08:38:41.822Z,102364.47
2022-10-29T08:41:34.040Z,102362.84
2022-10-29T08:44:28.764Z,102360.75
2022-10-29T08:47:21.332Z,102363.31
2022-10-29T08:49:52.046Z,102363.31
2022-10-29T08:52:28.575Z,102361.03
2022-10-29T08:55:15.581Z,102363.44
2022-10-29T08:57:46.017Z,102360.47
2022-10-29T09:00:21.918Z,102359.56
2022-10-29T09:02:58.084Z,102360.25
2022-10-29T09:06:05.459Z,102353.66
2022-10-29T09:08:57.226Z,102356.47
2022-10-29T09:11:39.228Z,102352.72
2022-10-29T09:14:46.839Z,102354.16
2022-10-29T09:17:16.726Z,102346.00
2022-10-29T09:19:52.367Z,102345.78
2022-10-29T09:22:50.780Z,102336.25
2022-10-29T09:25:26.566Z,102340.09
2022-10-29T09:28:25.898Z,102335.25
2022-10-29T09:31:19.435Z,102335.91
2022-10-29T09:33:57.816Z,102326.66
2022-10-29T09:36:32.639Z,102330.78
2022-10-29T09:39:34.343Z,102336.47
2022-10-29T09:42:05.427Z,102329.03
2022-10-29T09:44:58.653Z,102327.66
2022-10-29T09:47:47.666Z,102327.84
2022-10-29T09:50:29.959Z,102332.81
2022-10-29T09:52:56.851Z,102317.69
2022-10-29T09:55:28.882Z,102321.06
2022-10-29T09:58:01.140Z,102319.81
2022-10-29T10:00:31.751Z,102329.38
2022-10-29T10:03:12.520Z,102320.41
2022-10-29T10:06:03.716Z,102313.31
2022-10-29T10:08:32.174Z,102318.03
2022-10-29T10:11:05.454Z,102310.00
2022-10-29T10:13:41.923Z,102301.72
2022-10-29T10:16:11.714Z,102307.91
2022-10-29T10:21:24.617Z,102301.94
2022-10-29T10:23:54.492Z,102296.66
2022-10-29T10:26:46.631Z,102288.19
2022-10-29T10:29:31.891Z,102281.50
2022-10-29T10:32:07.356Z,102271.19
2022-10-29T10:34:35.860Z,102277.19
2022-10-29T10:37:02.591Z,102272.34
2022-10-29T10:39:41.270Z,102268.28
2022-10-29T10:42:23.371Z,102261.44
2022-10-29T10:44:55.691Z,102262.81
2022-10-29T10:47:27.538Z,102262.84
2022-10-29T10:50:13.727Z,102260.41
2022-10-29T10:52:41.382Z,102259.63
2022-10-29T10:55:30.651Z,102253.56
2022-10-29T10:58:25.775Z,102250.06
2022-10-29T11:01:16.492Z,102248.91
2022-10-29T11:03:47.123Z,102249.56
2022-10-29T11:06:45.006Z,102248.19
2022-10-29T11:09:55.812Z,102242.16
2022-10-29T11:12:37.772Z,102245.47
2022-10-29T11:15:15.031Z,102239.59
2022-10-29T11:18:00.902Z,102224.94
2022-10-29T11:20:36.543Z,102228.53
2022-10-29T11:23:38.762Z,102226.56
2022-10-29T11:26:22.506Z,102219.81
2022-10-29T11:29:15.424Z,102222.03
2022-10-29T11:31:55.697Z,102218.75
2022-10-29T11:34:30.362Z,102213.81
2022-10-29T11:37:05.445Z,102212.56
2022-10-29T11:39:43.631Z,102212.34
2022-10-29T11:42:10.424Z,102212.22
2022-10-29T11:44:39.289Z,102207.72
2022-10-29T11:47:08.940Z,102193.19
2022-10-29T11:49:44.727Z,102197.69
2022-10-29T11:52:35.499Z,102193.13
2022-10-29T11:55:05.679Z,102188.19
2022-10-29T11:57:44.203Z,102188.84
2022-10-29T12:00:23.341Z,102184.88
2022-10-29T12:03:59.180Z,102180.28
2022-10-29T12:06:38.337Z,102172.97
2022-10-29T12:09:31.027Z,102171.25
2022-10-29T12:12:27.527Z,102174.47
2022-10-29T12:15:12.158Z,102164.00
2022-10-29T12:17:45.819Z,102169.75
2022-10-29T12:20:31.169Z,102166.75
2022-10-29T12:23:30.405Z,102166.00
2022-10-29T12:26:07.672Z,102154.50
2022-10-29T12:29:08.834Z,102151.38
2022-10-29T12:32:08.629Z,102152.41
2022-10-29T12:34:48.599Z,102146.25
2022-10-29T12:38:01.306Z,102141.81
2022-10-29T12:40:39.420Z,102140.75
2022-10-29T12:43:13.923Z,102143.41
2022-10-29T12:46:06.525Z,102136.25
2022-10-29T12:48:53.518Z,102130.53
2022-10-29T12:51:40.602Z,102119.75
2022-10-29T12:54:39.635Z,102119.75
2022-10-29T12:57:36.357Z,102122.50
2022-10-29T13:00:27.888Z,102121.06
2022-10-29T13:02:56.319Z,102122.94
2022-10-29T13:05:26.349Z,102121.28
2022-10-29T13:07:59.821Z,102118.66
2022-10-29T13:10:33.020Z,102104.19
2022-10-29T13:12:59.868Z,102103.47
2022-10-29T13:15:47.633Z,102102.09
2022-10-29T13:18:52.196Z,102102.69
2022-10-29T13:21:56.686Z,102088.63
2022-10-29T13:24:27.761Z,102085.66
2022-10-29T13:26:55.882Z,102085.50
2022-10-29T13:30:11.295Z,102085.38
2022-10-29T13:32:41.713Z,102085.16
2022-10-29T13:35:21.440Z,102086.00
2022-10-29T13:38:12.768Z,102082.22
2022-10-29T13:40:45.959Z,102080.16
2022-10-29T13:43:19.162Z,102073.72
2022-10-29T13:46:03.220Z,102074.06
2022-10-29T13:48:37.508Z,102070.88
2022-10-29T13:51:11.482Z,102056.06
2022-10-29T13:53:50.256Z,102060.72
2022-10-29T13:56:36.109Z,102061.66
2022-10-29T13:59:11.297Z,102057.53
2022-10-29T14:01:38.526Z,102051.75
2022-10-29T14:04:25.338Z,102050.72
2022-10-29T14:06:56.337Z,102055.50
2022-10-29T14:09:55.917Z,102060.44
2022-10-29T14:12:30.662Z,102060.25
2022-10-29T14:15:12.742Z,102048.19
2022-10-29T14:17:42.327Z,102051.22
2022-10-29T14:20:21.788Z,102051.94
2022-10-29T14:22:50.221Z,102056.41
2022-10-29T14:25:32.957Z,102054.19
2022-10-29T14:28:16.147Z,102055.91
2022-10-29T14:30:58.980Z,102053.47
2022-10-29T14:33:28.514Z,102052.22
2022-10-29T14:36:15.188Z,102059.81
2022-10-29T14:39:06.633Z,102054.75
2022-10-29T14:41:53.625Z,102051.41
2022-10-29T14:44:38.464Z,102043.63
2022-10-29T14:47:13.271Z,102042.22
2022-10-29T14:50:47.248Z,102050.00
2022-10-29T14:56:23.289Z,102040.84
2022-10-29T15:01:57.033Z,102040.94
2022-10-29T15:31:53.810Z,102032.72
2022-10-29T15:34:46.208Z,102025.13
2022-10-29T15:43:33.714Z,102035.47
2022-10-29T15:46:34.212Z,102035.91
2022-10-29T15:49:05.750Z,102041.19
2022-10-29T15:51:44.760Z,102045.72
2022-10-29T15:54:18.370Z,102039.66
2022-10-29T15:56:46.895Z,102045.00
2022-10-29T15:59:20.584Z,102045.09
2022-10-29T16:01:48.524Z,102044.28
2022-10-29T16:04:20.092Z,102054.97
2022-10-29T16:06:49.598Z,102053.56
2022-10-29T16:09:19.762Z,102055.56
2022-10-29T16:11:46.604Z,102058.72
2022-10-29T16:14:16.204Z,102053.66
2022-10-29T16:16:48.014Z,102046.59
2022-10-29T16:19:15.951Z,102055.66
2022-10-29T16:21:43.040Z,102053.00
2022-10-29T16:24:14.808Z,102059.28
2022-10-29T16:26:44.291Z,102062.88
2022-10-29T16:29:16.157Z,102067.50
2022-10-29T16:31:47.392Z,102068.78
2022-10-29T16:34:27.081Z,102063.56
2022-10-29T16:37:07.558Z,102064.56
2022-10-29T16:39:59.720Z,102071.00
2022-10-29T16:42:44.613Z,102067.44
2022-10-29T16:45:17.559Z,102069.41
2022-10-29T16:47:45.957Z,102070.56
2022-10-29T16:50:17.993Z,102076.06
2022-10-29T16:52:44.734Z,102074.22
2022-10-29T16:55:17.583Z,102077.19
2022-10-29T16:57:44.548Z,102071.03
2022-10-29T17:02:56.513Z,102074.44
2022-10-29T17:05:33.898Z,102073.81
2022-10-29T17:08:14.712Z,102074.81
2022-10-29T17:10:53.608Z,102084.00
2022-10-29T17:13:20.489Z,102083.25
2022-10-29T17:15:51.667Z,102088.63
2022-10-29T17:18:18.318Z,102082.78
2022-10-29T17:21:01.258Z,102087.38
2022-10-29T17:23:28.881Z,102095.41
2022-10-29T17:25:57.662Z,102090.06
2022-10-29T17:28:28.750Z,102092.94
2022-10-29T17:30:56.892Z,102092.22
2022-10-29T17:33:23.644Z,102102.91
2022-10-29T17:35:53.510Z,102097.56
2022-10-29T17:38:24.203Z,102101.38
2022-10-29T17:40:53.075Z,102094.31
2022-10-29T17:43:28.634Z,102099.03
2022-10-29T17:45:55.369Z,102103.63
2022-10-29T17:48:24.974Z,102105.34
2022-10-29T17:51:00.427Z,102102.69
2022-10-29T17:53:28.550Z,102110.97
2022-10-29T17:55:59.644Z,102112.00
2022-10-29T17:58:29.097Z,102106.72
2022-10-29T18:01:02.604Z,102110.38
2022-10-29T18:03:30.181Z,102115.47
2022-10-29T18:06:05.512Z,102115.66
2022-10-29T18:08:33.055Z,102114.16
2022-10-29T18:11:11.839Z,102114.41
2022-10-29T18:13:44.095Z,102105.66
2022-10-29T18:16:12.052Z,102113.16
2022-10-29T18:18:54.361Z,102108.88
2022-10-29T18:21:27.632Z,102108.13
2022-10-29T18:23:59.658Z,102116.16
2022-10-29T18:26:36.020Z,102107.31
2022-10-29T18:29:08.434Z,102101.88
2022-10-29T18:31:38.120Z,102101.25
2022-10-29T18:34:08.345Z,102099.50
2022-10-29T18:36:37.501Z,102107.47
2022-10-29T18:39:05.682Z,102098.56
2022-10-29T18:41:39.692Z,102108.34
2022-10-29T18:44:06.920Z,102098.78
2022-10-29T18:46:38.417Z,102095.22
2022-10-29T18:49:05.286Z,102090.19
2022-10-29T18:51:33.014Z,102094.59
2022-10-29T18:54:04.687Z,102100.13
2022-10-29T18:56:40.485Z,102089.59
2022-10-29T18:59:18.191Z,102082.59
2022-10-29T19:01:46.211Z,102084.25
2022-10-29T19:04:19.431Z,102090.19
2022-10-29T19:06:49.649Z,102087.63
2022-10-29T19:09:19.854Z,102090.59
2022-10-29T19:11:59.376Z,102087.13
2022-10-29T19:14:26.745Z,102086.97
2022-10-29T19:16:56.522Z,102089.00
2022-10-29T19:19:24.088Z,102090.31
2022-10-29T19:21:50.967Z,102087.63
2022-10-29T19:24:21.161Z,102088.56
2022-10-29T19:26:47.959Z,102092.94
2022-10-29T19:29:14.859Z,102086.75
2022-10-29T19:31:50.856Z,102090.81
2022-10-29T19:34:34.873Z,102088.22
2022-10-29T19:37:02.155Z,102085.78
2022-10-29T19:39:29.137Z,102083.16
2022-10-29T19:41:58.706Z,102087.50
2022-10-29T19:44:27.839Z,102082.19
2022-10-29T19:47:01.965Z,102091.94
2022-10-29T19:49:37.303Z,102085.78
2022-10-29T19:52:06.962Z,102090.31
2022-10-29T19:54:35.800Z,102082.19
2022-10-29T19:57:05.841Z,102088.25
2022-10-29T19:59:32.700Z,102081.97
2022-10-29T20:02:01.568Z,102086.41
2022-10-29T20:04:28.514Z,102089.09
2022-10-29T20:06:56.611Z,102088.31
2022-10-29T20:09:28.877Z,102084.13
2022-10-29T20:11:58.267Z,102086.53
2022-10-29T20:14:28.874Z,102087.41
2022-10-29T20:16:58.818Z,102083.44
2022-10-29T20:19:38.932Z,102087.78
2022-10-29T20:22:08.517Z,102080.69
2022-10-29T20:24:38.297Z,102084.69
2022-10-29T20:27:05.497Z,102075.88
2022-10-29T20:29:33.484Z,102081.03
2022-10-29T20:32:04.103Z,102084.59
2022-10-29T20:34:33.955Z,102090.06
2022-10-29T20:37:03.832Z,102091.00
2022-10-29T20:39:33.423Z,102076.78
2022-10-29T20:42:01.849Z,102075.88
2022-10-29T20:44:31.664Z,102081.47
2022-10-29T20:47:08.854Z,102082.66
2022-10-29T20:49:36.907Z,102083.66
2022-10-29T20:52:13.102Z,102082.53
2022-10-29T20:54:48.996Z,102085.28
2022-10-29T20:57:18.717Z,102085.31
2022-10-29T20:59:46.151Z,102085.50
2022-10-29T21:02:13.120Z,102081.88
2022-10-29T21:04:39.888Z,102087.13
2022-10-29T21:07:07.846Z,102088.06
2022-10-29T21:09:34.969Z,102085.41
2022-10-29T21:12:01.976Z,102086.53
2022-10-29T21:14:29.766Z,102087.50
2022-10-29T21:16:56.523Z,102083.66
2022-10-29T21:19:32.376Z,102087.09
2022-10-29T21:22:02.348Z,102088.56
2022-10-29T21:24:29.315Z,102086.72
2022-10-29T21:26:58.784Z,102088.53
2022-10-29T21:29:57.138Z,102088.44
2022-10-29T21:32:28.029Z,102087.75
2022-10-29T21:35:03.909Z,102084.38
2022-10-29T21:37:34.804Z,102086.50
2022-10-29T21:40:10.679Z,102085.69
2022-10-29T21:42:47.550Z,102081.41
2022-10-29T21:45:20.305Z,102091.31
2022-10-29T21:48:18.061Z,102088.72
2022-10-29T21:51:10.113Z,102086.16
2022-10-29T21:53:51.764Z,102076.50
2022-10-29T21:56:28.991Z,102079.50
2022-10-29T21:59:01.455Z,102076.94
2022-10-29T22:01:44.840Z,102084.97
2022-10-29T22:04:20.377Z,102080.59
2022-10-29T22:06:47.162Z,102081.28
2022-10-29T22:09:22.465Z,102075.28
2022-10-29T22:11:49.229Z,102073.00
2022-10-29T22:14:19.134Z,102070.25
2022-10-29T22:16:52.601Z,102074.38
2022-10-29T22:19:36.895Z,102072.78
2022-10-29T22:22:08.709Z,102069.31
2022-10-29T22:24:41.035Z,102069.63
2022-10-29T22:27:19.022Z,102073.25
2022-10-29T22:29:57.268Z,102070.50
2022-10-29T22:35:07.116Z,102072.28
2022-10-29T22:37:36.748Z,102071.28
2022-10-29T22:40:03.896Z,102069.53
2022-10-29T22:42:30.516Z,102071.19
2022-10-29T22:44:57.298Z,102073.16
2022-10-29T22:47:26.219Z,102074.00
2022-10-29T22:49:58.541Z,102072.34
2022-10-29T22:52:25.214Z,102069.88
2022-10-29T22:54:57.830Z,102069.88
2022-10-29T22:57:33.512Z,102068.94
2022-10-29T23:00:00.280Z,102064.56
2022-10-29T23:02:35.798Z,102058.44
2022-10-29T23:05:03.900Z,102060.22
2022-10-29T23:10:02.733Z,102060.53
2022-10-29T23:12:31.707Z,102054.00
2022-10-29T23:15:07.040Z,102049.66
2022-10-29T23:17:37.859Z,102049.03
2022-10-29T23:20:04.950Z,102048.44
2022-10-29T23:22:34.445Z,102049.16
2022-10-29T23:25:01.702Z,102054.53
2022-10-29T23:27:29.936Z,102045.53
2022-10-29T23:29:58.120Z,102050.59
2022-10-29T23:32:24.912Z,102047.81
2022-10-29T23:34:59.286Z,102046.00
2022-10-29T23:37:28.905Z,102047.25
2022-10-29T23:39:56.714Z,102043.56
2022-10-29T23:42:26.427Z,102038.22
2022-10-29T23:44:53.487Z,102042.72
2022-10-29T23:47:23.659Z,102041.09
2022-10-29T23:49:52.916Z,102043.13
2022-10-29T23:52:37.258Z,102035.31
2022-10-29T23:55:05.221Z,102046.03
2022-10-29T23:57:35.898Z,102038.16
